createdAt,value
2023-04-28T00:01:35.149Z,4.20
2023-04-28T00:04:02.551Z,4.60
2023-04-28T00:06:30.975Z,5.00
2023-04-28T00:08:58.001Z,5.00
2023-04-28T00:11:25.011Z,4.70
2023-04-28T00:13:52.534Z,5.40
2023-04-28T00:16:19.513Z,6.10
2023-04-28T00:18:46.636Z,4.00
2023-04-28T00:21:13.750Z,3.90
2023-04-28T00:23:40.695Z,3.90
2023-04-28T00:26:07.698Z,4.50
2023-04-28T00:28:35.172Z,5.10
2023-04-28T00:31:02.631Z,4.60
2023-04-28T00:33:29.811Z,4.90
2023-04-28T00:36:01.428Z,5.20
2023-04-28T00:38:29.093Z,5.00
2023-04-28T00:40:56.272Z,5.90
2023-04-28T00:43:23.322Z,5.70
2023-04-28T00:45:50.660Z,4.40
2023-04-28T00:48:18.300Z,5.70
2023-04-28T00:50:45.863Z,5.70
2023-04-28T00:53:12.920Z,6.20
2023-04-28T00:55:39.936Z,6.10
2023-04-28T00:58:07.279Z,5.50
2023-04-28T01:00:34.590Z,5.90
2023-04-28T01:03:01.950Z,5.60
2023-04-28T01:05:31.847Z,5.50
2023-04-28T01:08:00.019Z,6.10
2023-04-28T01:10:27.036Z,4.60
2023-04-28T01:12:54.099Z,4.50
2023-04-28T01:15:21.403Z,5.00
2023-04-28T01:17:49.403Z,5.80
2023-04-28T01:20:16.501Z,5.60
2023-04-28T01:22:43.758Z,6.00
2023-04-28T01:25:10.917Z,5.90
2023-04-28T01:27:38.348Z,6.20
2023-04-28T01:30:06.950Z,5.00
2023-04-28T01:32:34.667Z,7.00
2023-04-28T01:35:02.909Z,4.90
2023-04-28T01:37:30.061Z,5.10
2023-04-28T01:39:57.039Z,5.40
2023-04-28T01:42:25.363Z,5.90
2023-04-28T01:44:53.294Z,5.60
2023-04-28T01:47:20.690Z,5.90
2023-04-28T01:49:50.168Z,6.80
2023-04-28T01:52:19.842Z,5.90
2023-04-28T01:54:47.487Z,6.60
2023-04-28T01:57:15.531Z,7.00
2023-04-28T01:59:44.491Z,5.10
2023-04-28T02:02:12.064Z,5.10
2023-04-28T02:04:39.857Z,5.40
2023-04-28T02:07:07.279Z,5.90
2023-04-28T02:09:34.313Z,6.30
2023-04-28T02:12:02.446Z,7.00
2023-04-28T02:14:32.391Z,7.00
2023-04-28T02:16:59.543Z,8.30
2023-04-28T02:19:26.890Z,8.40
2023-04-28T02:21:53.932Z,6.40
2023-04-28T02:24:21.671Z,6.00
2023-04-28T02:26:50.447Z,8.40
2023-04-28T02:29:18.245Z,9.60
2023-04-28T02:31:45.483Z,10.00
2023-04-28T02:34:12.452Z,10.10
2023-04-28T02:36:39.578Z,11.50
2023-04-28T02:39:07.588Z,10.80
2023-04-28T02:41:35.000Z,10.30
2023-04-28T02:44:02.051Z,7.20
2023-04-28T02:46:29.398Z,6.80
2023-04-28T02:48:58.027Z,8.00
2023-04-28T02:51:25.206Z,8.30
2023-04-28T02:53:52.237Z,8.30
2023-04-28T02:56:19.249Z,8.70
2023-04-28T02:58:46.452Z,9.00
2023-04-28T03:01:13.606Z,9.50
2023-04-28T03:03:40.995Z,8.10
2023-04-28T03:06:08.308Z,8.40
2023-04-28T03:08:35.474Z,11.00
2023-04-28T03:11:02.738Z,22.10
2023-04-28T03:13:30.145Z,20.60
2023-04-28T03:15:57.548Z,24.40
2023-04-28T03:18:24.876Z,29.70
2023-04-28T03:20:51.886Z,25.00
2023-04-28T03:23:19.996Z,23.00
2023-04-28T03:25:46.951Z,21.30
2023-04-28T03:28:13.961Z,22.70
2023-04-28T03:30:41.001Z,24.30
2023-04-28T03:33:08.037Z,26.40
2023-04-28T03:35:35.121Z,26.20
2023-04-28T03:38:02.396Z,31.40
2023-04-28T03:40:29.616Z,31.90
2023-04-28T03:43:11.872Z,24.40
2023-04-28T03:46:06.767Z,27.50
2023-04-28T03:48:33.839Z,20.20
2023-04-28T03:51:01.149Z,21.60
2023-04-28T03:53:28.381Z,18.70
2023-04-28T03:55:55.395Z,20.60
2023-04-28T03:58:22.406Z,23.30
2023-04-28T04:00:50.135Z,23.10
2023-04-28T04:03:17.557Z,18.90
2023-04-28T04:05:44.999Z,19.90
2023-04-28T04:08:12.008Z,22.10
2023-04-28T04:10:38.939Z,16.90
2023-04-28T04:13:05.987Z,15.20
2023-04-28T04:15:33.108Z,14.70
2023-04-28T04:18:00.683Z,25.50
2023-04-28T04:20:32.518Z,30.60
2023-04-28T04:22:59.424Z,20.80
2023-04-28T04:25:26.399Z,16.80
2023-04-28T04:27:56.078Z,15.80
2023-04-28T04:30:22.998Z,21.60
2023-04-28T04:32:50.011Z,18.40
2023-04-28T04:35:17.295Z,18.20
2023-04-28T04:37:44.659Z,16.00
2023-04-28T04:40:12.319Z,13.60
2023-04-28T04:42:44.292Z,11.40
2023-04-28T04:45:18.361Z,8.10
2023-04-28T04:47:45.482Z,10.80
2023-04-28T04:50:13.144Z,7.80
2023-04-28T04:52:40.181Z,10.10
2023-04-28T04:55:08.040Z,8.70
2023-04-28T04:57:35.020Z,9.90
2023-04-28T05:00:02.132Z,9.50
2023-04-28T05:02:29.843Z,9.60
2023-04-28T05:05:08.195Z,10.30
2023-04-28T05:07:44.340Z,9.70
2023-04-28T05:10:14.202Z,12.00
2023-04-28T05:12:41.657Z,14.80
2023-04-28T05:15:09.168Z,11.50
2023-04-28T05:17:38.088Z,9.60
2023-04-28T05:20:05.906Z,8.90
2023-04-28T05:22:33.199Z,8.30
2023-04-28T05:25:00.307Z,8.20
2023-04-28T05:27:27.230Z,9.30
2023-04-28T05:29:54.222Z,8.20
2023-04-28T05:32:21.606Z,7.80
2023-04-28T05:34:48.609Z,7.70
2023-04-28T05:37:15.860Z,7.70
2023-04-28T05:39:43.627Z,8.10
2023-04-28T05:42:10.542Z,8.00
2023-04-28T05:44:37.922Z,7.70
2023-04-28T05:47:04.879Z,7.60
2023-04-28T05:49:32.619Z,8.20
2023-04-28T05:51:59.547Z,8.10
2023-04-28T05:54:27.235Z,6.80
2023-04-28T05:56:55.745Z,6.50
2023-04-28T05:59:22.693Z,6.20
2023-04-28T06:01:50.964Z,5.80
2023-04-28T06:04:18.321Z,6.30
2023-04-28T06:06:47.303Z,6.60
2023-04-28T06:09:14.666Z,5.80
2023-04-28T06:11:41.834Z,6.40
2023-04-28T06:14:08.897Z,6.30
2023-04-28T06:16:36.022Z,6.60
2023-04-28T06:19:02.982Z,5.70
2023-04-28T06:21:30.123Z,6.00
2023-04-28T06:23:57.062Z,5.50
2023-04-28T06:26:24.264Z,4.90
2023-04-28T06:28:51.227Z,4.90
2023-04-28T06:31:18.151Z,5.80
2023-04-28T06:33:45.023Z,5.40
2023-04-28T06:36:14.188Z,4.80
2023-04-28T06:38:43.317Z,5.50
2023-04-28T06:41:11.458Z,5.50
2023-04-28T06:43:39.014Z,4.50
2023-04-28T06:46:12.430Z,4.80
2023-04-28T06:48:39.505Z,4.40
2023-04-28T06:51:06.572Z,4.80
2023-04-28T06:53:35.108Z,4.30
2023-04-28T06:56:03.012Z,4.50
2023-04-28T06:58:30.163Z,3.90
2023-04-28T07:00:57.156Z,3.90
2023-04-28T07:03:24.894Z,3.50
2023-04-28T07:05:51.884Z,3.70
2023-04-28T07:08:18.882Z,3.50
2023-04-28T07:10:45.797Z,3.20
2023-04-28T07:13:12.767Z,4.10
2023-04-28T07:15:39.758Z,3.30
2023-04-28T07:18:06.754Z,3.40
2023-04-28T07:20:33.634Z,3.40
2023-04-28T07:23:00.599Z,3.90
2023-04-28T07:25:27.507Z,4.20
2023-04-28T07:27:54.465Z,4.10
2023-04-28T07:30:28.031Z,4.40
2023-04-28T07:32:55.668Z,4.00
2023-04-28T07:35:22.804Z,4.30
2023-04-28T07:37:49.714Z,4.40
2023-04-28T07:40:16.802Z,4.40
2023-04-28T07:42:43.707Z,4.40
2023-04-28T07:45:10.863Z,4.40
2023-04-28T07:47:38.016Z,3.80
2023-04-28T07:50:06.664Z,4.10
2023-04-28T07:52:34.471Z,3.90
2023-04-28T07:55:02.524Z,4.10
2023-04-28T07:57:30.030Z,4.00
2023-04-28T07:59:57.238Z,9.40
2023-04-28T08:02:24.317Z,4.20
2023-04-28T08:04:51.543Z,5.00
2023-04-28T08:07:18.517Z,5.50
2023-04-28T08:09:47.294Z,4.10
2023-04-28T08:12:15.095Z,4.90
2023-04-28T08:14:42.162Z,4.10
2023-04-28T08:17:09.412Z,4.70
2023-04-28T08:19:36.512Z,4.50
2023-04-28T08:22:07.325Z,4.40
2023-04-28T08:24:34.544Z,4.60
2023-04-28T08:27:04.595Z,4.30
2023-04-28T08:29:32.095Z,4.40
2023-04-28T08:31:59.214Z,4.40
2023-04-28T08:34:26.112Z,4.80
2023-04-28T08:36:54.338Z,4.40
2023-04-28T08:39:23.537Z,4.40
2023-04-28T08:41:50.840Z,6.90
2023-04-28T08:44:18.721Z,4.30
2023-04-28T08:46:46.903Z,3.90
2023-04-28T08:49:18.652Z,4.50
2023-04-28T08:52:10.030Z,4.00
2023-04-28T08:54:37.135Z,4.30
2023-04-28T08:57:04.455Z,4.60
2023-04-28T08:59:31.948Z,4.20
2023-04-28T09:05:25.957Z,4.70
2023-04-28T09:07:53.159Z,9.50
2023-04-28T09:10:21.815Z,7.30
2023-04-28T09:12:51.160Z,5.40
2023-04-28T09:15:34.938Z,4.40
2023-04-28T09:18:03.414Z,4.50
2023-04-28T09:20:31.930Z,5.10
2023-04-28T09:23:21.874Z,4.70
2023-04-28T09:26:05.268Z,4.60
2023-04-28T09:28:32.824Z,4.60
2023-04-28T09:30:59.897Z,4.30
2023-04-28T09:33:27.361Z,4.30
2023-04-28T09:35:54.608Z,5.10
2023-04-28T09:38:22.168Z,5.10
2023-04-28T09:41:00.526Z,5.10
2023-04-28T09:43:32.291Z,4.80
2023-04-28T09:46:01.073Z,4.90
2023-04-28T09:48:35.580Z,5.00
2023-04-28T09:51:04.015Z,5.40
2023-04-28T09:53:31.248Z,4.40
2023-04-28T09:55:59.334Z,4.30
2023-04-28T09:58:27.463Z,4.30
2023-04-28T10:00:58.610Z,4.80
2023-04-28T10:03:32.056Z,4.40
2023-04-28T10:05:59.496Z,5.70
2023-04-28T10:08:28.038Z,5.00
2023-04-28T10:10:55.198Z,4.40
2023-04-28T10:13:22.873Z,4.90
2023-04-28T10:19:25.236Z,4.30
2023-04-28T10:22:04.406Z,4.50
2023-04-28T10:24:31.455Z,4.20
2023-04-28T10:27:05.769Z,4.30
2023-04-28T10:29:33.636Z,4.60
2023-04-28T10:32:15.800Z,5.50
2023-04-28T10:34:42.715Z,5.10
2023-04-28T10:37:09.903Z,4.50
2023-04-28T10:39:37.343Z,4.80
2023-04-28T10:42:04.410Z,4.60
2023-04-28T10:44:31.543Z,4.60
2023-04-28T10:47:09.721Z,5.00
2023-04-28T10:49:55.437Z,4.50
2023-04-28T10:52:35.547Z,4.00
2023-04-28T10:55:36.627Z,4.20
2023-04-28T10:58:16.285Z,4.80
2023-04-28T11:00:53.354Z,5.30
2023-04-28T11:03:40.764Z,4.40
2023-04-28T11:06:21.515Z,6.50
2023-04-28T11:08:48.789Z,5.20
2023-04-28T11:11:19.937Z,5.80
2023-04-28T11:13:47.258Z,5.80
2023-04-28T11:16:15.555Z,5.70
2023-04-28T11:18:55.258Z,5.20
2023-04-28T11:21:23.481Z,5.60
2023-04-28T11:23:50.587Z,4.80
2023-04-28T11:26:18.887Z,5.10
2023-04-28T11:28:56.857Z,5.30
2023-04-28T11:31:25.212Z,4.70
2023-04-28T11:33:56.999Z,5.10
2023-04-28T11:36:24.913Z,4.80
2023-04-28T11:38:51.969Z,4.80
2023-04-28T11:41:19.758Z,4.00
2023-04-28T11:43:47.745Z,4.60
2023-04-28T11:46:19.243Z,5.40
2023-04-28T11:48:46.611Z,4.60
2023-04-28T11:51:36.797Z,5.80
2023-04-28T11:54:04.832Z,6.60
2023-04-28T11:56:32.586Z,7.10
2023-04-28T11:59:04.876Z,5.20
2023-04-28T12:01:32.747Z,7.20
2023-04-28T12:03:59.875Z,4.30
2023-04-28T12:06:28.124Z,5.00
2023-04-28T12:08:55.606Z,4.60
2023-04-28T12:11:25.643Z,4.40
2023-04-28T12:14:06.856Z,4.30
2023-04-28T12:16:39.339Z,4.50
2023-04-28T12:19:10.037Z,4.50
2023-04-28T12:21:39.063Z,4.20
2023-04-28T12:24:16.136Z,4.10
2023-04-28T12:26:43.469Z,4.10
2023-04-28T12:29:10.832Z,4.30
2023-04-28T12:31:52.964Z,4.40
2023-04-28T12:34:20.758Z,4.10
2023-04-28T12:36:47.900Z,4.30
2023-04-28T12:39:16.608Z,4.10
2023-04-28T12:41:44.705Z,4.40
2023-04-28T12:44:11.626Z,4.50
2023-04-28T12:46:39.060Z,4.40
2023-04-28T12:49:06.134Z,4.60
2023-04-28T12:51:36.646Z,4.80
2023-04-28T12:54:05.584Z,4.70
2023-04-28T12:56:32.585Z,7.00
2023-04-28T12:59:02.681Z,4.70
2023-04-28T13:01:29.810Z,4.70
2023-04-28T13:03:57.161Z,4.40
2023-04-28T13:06:24.260Z,6.50
2023-04-28T13:08:51.144Z,4.50
2023-04-28T13:11:22.453Z,5.70
2023-04-28T13:13:50.188Z,4.30
2023-04-28T13:16:17.167Z,4.40
2023-04-28T13:18:44.388Z,5.00
2023-04-28T13:21:11.880Z,4.80
2023-04-28T13:23:39.159Z,4.50
2023-04-28T13:26:06.107Z,5.10
2023-04-28T13:28:33.223Z,5.10
2023-04-28T13:31:00.214Z,5.20
2023-04-28T13:33:31.309Z,4.80
2023-04-28T13:35:59.217Z,6.20
2023-04-28T13:38:26.917Z,5.50
2023-04-28T13:40:53.918Z,5.10
2023-04-28T13:43:20.938Z,4.20
2023-04-28T13:45:47.972Z,5.30
2023-04-28T13:48:14.894Z,4.50
2023-04-28T13:50:41.982Z,4.40
2023-04-28T13:53:09.324Z,4.40
2023-04-28T13:55:36.656Z,4.50
2023-04-28T13:58:05.213Z,4.50
2023-04-28T14:00:33.430Z,4.20
2023-04-28T14:03:00.985Z,5.20
2023-04-28T14:05:29.841Z,5.50
2023-04-28T14:07:58.870Z,7.10
2023-04-28T14:10:26.763Z,5.50
2023-04-28T14:12:53.878Z,6.10
2023-04-28T14:15:20.790Z,5.60
2023-04-28T14:17:48.760Z,5.00
2023-04-28T14:20:15.696Z,5.10
2023-04-28T14:22:42.866Z,5.00
2023-04-28T14:25:10.032Z,5.10
2023-04-28T14:27:37.310Z,4.70
2023-04-28T14:30:05.151Z,5.30
2023-04-28T14:32:32.585Z,5.60
2023-04-28T14:34:59.636Z,4.20
2023-04-28T14:37:26.861Z,4.50
2023-04-28T14:39:53.905Z,4.50
2023-04-28T14:42:21.032Z,4.40
2023-04-28T14:44:48.443Z,4.60
2023-04-28T14:47:15.934Z,4.50
2023-04-28T14:49:42.889Z,4.00
2023-04-28T14:52:10.030Z,4.60
2023-04-28T14:54:37.298Z,4.60
2023-04-28T14:57:04.264Z,4.60
2023-04-28T14:59:31.735Z,4.90
2023-04-28T15:01:58.793Z,3.90
2023-04-28T15:04:29.955Z,4.90
2023-04-28T15:06:57.262Z,6.50
2023-04-28T15:09:24.360Z,4.60
2023-04-28T15:11:51.829Z,4.20
2023-04-28T15:14:19.707Z,3.70
2023-04-28T15:16:47.330Z,4.20
2023-04-28T15:19:14.690Z,4.10
2023-04-28T15:21:41.717Z,4.20
2023-04-28T15:24:08.742Z,4.20
2023-04-28T15:26:35.640Z,4.40
2023-04-28T15:29:02.642Z,6.20
2023-04-28T15:31:29.898Z,4.60
2023-04-28T15:33:57.204Z,4.20
2023-04-28T15:36:24.163Z,5.40
2023-04-28T15:38:52.121Z,6.40
2023-04-28T15:41:19.114Z,4.50
2023-04-28T15:43:46.327Z,4.90
2023-04-28T15:46:16.967Z,4.30
2023-04-28T15:48:44.342Z,4.20
2023-04-28T15:51:11.616Z,5.30
2023-04-28T15:53:38.937Z,5.40
2023-04-28T15:56:06.560Z,4.30
2023-04-28T15:58:34.017Z,4.30
2023-04-28T16:01:01.070Z,5.90
2023-04-28T16:03:28.178Z,4.40
2023-04-28T16:05:55.695Z,5.30
2023-04-28T16:08:25.862Z,12.50
2023-04-28T16:10:52.915Z,15.20
2023-04-28T16:13:20.098Z,5.20
2023-04-28T16:15:49.531Z,16.10
2023-04-28T16:18:17.413Z,7.80
2023-04-28T16:20:44.707Z,5.30
2023-04-28T16:23:13.905Z,6.40
2023-04-28T16:25:43.706Z,5.70
2023-04-28T16:28:10.687Z,4.90
2023-04-28T16:30:37.855Z,5.10
2023-04-28T16:33:05.107Z,5.30
2023-04-28T16:35:32.715Z,4.50
2023-04-28T16:37:59.739Z,4.90
2023-04-28T16:40:27.032Z,4.60
2023-04-28T16:42:53.949Z,4.80
2023-04-28T16:45:20.918Z,4.30
2023-04-28T16:47:48.007Z,4.60
2023-04-28T16:50:15.032Z,5.20
2023-04-28T16:52:42.332Z,5.80
2023-04-28T16:55:09.831Z,5.60
2023-04-28T16:57:36.849Z,5.30
2023-04-28T17:00:05.036Z,5.30
2023-04-28T17:02:33.410Z,5.50
2023-04-28T17:05:00.682Z,7.20
2023-04-28T17:07:27.857Z,7.80
2023-04-28T17:09:54.809Z,6.40
2023-04-28T17:12:23.411Z,5.30
2023-04-28T17:14:54.026Z,4.70
2023-04-28T17:17:20.937Z,4.40
2023-04-28T17:19:48.140Z,5.40
2023-04-28T17:22:15.278Z,7.10
2023-04-28T17:24:43.972Z,5.50
2023-04-28T17:27:10.944Z,10.60
2023-04-28T17:29:37.849Z,40.60
2023-04-28T17:32:05.010Z,17.60
2023-04-28T17:34:31.977Z,14.00
2023-04-28T17:36:59.187Z,16.40
2023-04-28T17:39:26.801Z,15.30
2023-04-28T17:41:54.271Z,16.10
2023-04-28T17:44:21.226Z,13.10
2023-04-28T17:46:48.202Z,12.90
2023-04-28T17:49:15.209Z,12.70
2023-04-28T17:51:42.276Z,13.80
2023-04-28T17:54:09.699Z,13.70
2023-04-28T17:56:38.346Z,16.40
2023-04-28T17:59:06.130Z,18.00
2023-04-28T18:01:35.063Z,24.20
2023-04-28T18:04:02.144Z,19.90
2023-04-28T18:06:29.937Z,18.60
2023-04-28T18:08:57.031Z,15.30
2023-04-28T18:11:24.136Z,15.40
2023-04-28T18:13:51.200Z,17.30
2023-04-28T18:16:18.152Z,31.40
2023-04-28T18:18:45.312Z,25.60
2023-04-28T18:21:12.275Z,21.70
2023-04-28T18:23:40.107Z,21.70
2023-04-28T18:26:07.141Z,27.60
2023-04-28T18:28:34.534Z,45.30
2023-04-28T18:31:05.236Z,40.50
2023-04-28T18:33:32.683Z,37.00
2023-04-28T18:36:05.193Z,35.20
2023-04-28T18:38:35.124Z,30.00
2023-04-28T18:41:13.385Z,28.70
2023-04-28T18:43:40.947Z,28.90
2023-04-28T18:46:08.295Z,27.80
2023-04-28T18:48:35.539Z,35.20
2023-04-28T18:51:05.737Z,28.20
2023-04-28T18:53:33.030Z,30.10
2023-04-28T18:56:00.100Z,27.40
2023-04-28T18:58:28.079Z,19.60
2023-04-28T19:00:55.009Z,18.20
2023-04-28T19:03:22.916Z,21.40
2023-04-28T19:05:50.156Z,22.60
2023-04-28T19:08:17.140Z,23.50
2023-04-28T19:10:44.096Z,24.50
2023-04-28T19:13:11.048Z,26.40
2023-04-28T19:15:38.517Z,26.40
2023-04-28T19:18:05.698Z,24.90
2023-04-28T19:20:33.714Z,25.70
2023-04-28T19:23:03.843Z,25.10
2023-04-28T19:25:33.703Z,27.60
2023-04-28T19:28:01.205Z,26.00
2023-04-28T19:30:28.303Z,25.40
2023-04-28T19:32:55.561Z,25.40
2023-04-28T19:35:22.822Z,19.40
2023-04-28T19:37:50.305Z,20.70
2023-04-28T19:40:17.518Z,23.00
2023-04-28T19:42:44.584Z,29.50
2023-04-28T19:45:11.908Z,48.80
2023-04-28T19:47:39.608Z,110.30
2023-04-28T19:50:08.581Z,43.50
2023-04-28T19:52:35.660Z,41.30
2023-04-28T19:55:02.710Z,53.40
2023-04-28T19:57:30.078Z,50.10
2023-04-28T19:59:57.542Z,36.60
2023-04-28T20:02:24.708Z,30.50
2023-04-28T20:04:51.827Z,26.40
2023-04-28T20:07:19.060Z,26.20
2023-04-28T20:09:46.341Z,30.60
2023-04-28T20:12:13.595Z,33.40
2023-04-28T20:14:41.051Z,31.20
2023-04-28T20:17:09.149Z,32.00
2023-04-28T20:19:37.135Z,34.50
2023-04-28T20:22:07.673Z,43.20
2023-04-28T20:24:37.377Z,41.00
2023-04-28T20:27:04.884Z,32.60
2023-04-28T20:29:34.720Z,27.30
2023-04-28T20:32:02.676Z,32.50
2023-04-28T20:34:30.993Z,32.50
2023-04-28T20:36:59.666Z,33.10
2023-04-28T20:39:26.762Z,26.10
2023-04-28T20:41:53.999Z,37.20
2023-04-28T20:44:21.350Z,34.30
2023-04-28T20:46:48.564Z,34.70
2023-04-28T20:49:15.701Z,31.20
2023-04-28T20:51:44.150Z,31.10
2023-04-28T20:54:12.061Z,43.10
2023-04-28T20:56:39.075Z,44.30
2023-04-28T20:59:06.112Z,45.30
2023-04-28T21:01:33.270Z,45.10
2023-04-28T21:04:00.671Z,48.60
2023-04-28T21:06:27.764Z,47.60
2023-04-28T21:08:55.115Z,53.00
2023-04-28T21:11:22.149Z,40.30
2023-04-28T21:13:49.076Z,44.30
2023-04-28T21:16:20.697Z,35.40
2023-04-28T21:18:49.164Z,38.00
2023-04-28T21:21:16.800Z,41.20
2023-04-28T21:23:44.394Z,44.30
2023-04-28T21:26:11.641Z,46.50
2023-04-28T21:28:40.191Z,34.40
2023-04-28T21:31:07.944Z,38.50
2023-04-28T21:33:35.197Z,39.30
2023-04-28T21:36:08.139Z,41.00
2023-04-28T21:38:36.984Z,33.60
2023-04-28T21:41:04.120Z,31.90
2023-04-28T21:43:31.109Z,31.90
2023-04-28T21:45:58.482Z,40.70
2023-04-28T21:48:25.466Z,40.80
2023-04-28T21:50:52.664Z,37.50
2023-04-28T21:53:20.652Z,37.40
2023-04-28T21:55:48.069Z,36.40
2023-04-28T21:58:15.488Z,42.00
2023-04-28T22:00:43.997Z,28.50
2023-04-28T22:03:11.338Z,23.60
2023-04-28T22:05:40.357Z,23.20
2023-04-28T22:08:07.485Z,23.90
2023-04-28T22:10:34.830Z,23.70
2023-04-28T22:13:02.321Z,25.40
2023-04-28T22:15:29.672Z,24.10
2023-04-28T22:17:56.821Z,36.50
2023-04-28T22:20:24.144Z,43.70
2023-04-28T22:22:51.627Z,48.70
2023-04-28T22:25:18.696Z,44.10
2023-04-28T22:27:45.799Z,46.40
2023-04-28T22:30:13.548Z,46.30
2023-04-28T22:32:44.747Z,56.10
2023-04-28T22:35:16.866Z,56.30
2023-04-28T22:37:44.150Z,41.90
2023-04-28T22:40:11.372Z,72.50
2023-04-28T22:42:39.357Z,108.70
2023-04-28T22:45:07.173Z,77.90
2023-04-28T22:47:35.000Z,72.70
2023-04-28T22:50:05.860Z,73.90
2023-04-28T22:52:34.182Z,78.60
2023-04-28T22:55:01.461Z,77.70
2023-04-28T22:57:28.653Z,77.00
2023-04-28T22:59:56.064Z,72.90
2023-04-28T23:02:23.418Z,72.40
2023-04-28T23:04:51.085Z,64.40
2023-04-28T23:07:18.547Z,65.00
2023-04-28T23:09:45.647Z,68.40
2023-04-28T23:12:12.918Z,76.00
2023-04-28T23:14:40.004Z,77.60
2023-04-28T23:17:07.013Z,62.30
2023-04-28T23:19:39.398Z,57.20
2023-04-28T23:22:07.897Z,55.80
2023-04-28T23:24:37.352Z,43.90
2023-04-28T23:27:04.879Z,42.40
2023-04-28T23:29:32.995Z,46.50
2023-04-28T23:32:00.177Z,47.90
2023-04-28T23:34:27.320Z,45.90
2023-04-28T23:36:54.449Z,44.60
2023-04-28T23:39:21.437Z,45.60
2023-04-28T23:41:48.753Z,43.90
2023-04-28T23:44:15.890Z,39.80
2023-04-28T23:46:43.690Z,40.50
2023-04-28T23:49:11.318Z,42.60
2023-04-28T23:51:39.393Z,43.00
2023-04-28T23:54:06.515Z,43.90
2023-04-28T23:56:33.800Z,44.90
2023-04-28T23:59:01.195Z,39.50
